Quinsam — VY6800 — position and weather

sailwx.info

Track history (hours):
 
Tides and Currents Weather Stations Pressure Air Temp Water Temp Dewpoint Dewpoint Depression Visibility Wind Speed Wind Dir Waves Ship Positions

Quinsam

Last reported at 2016-May-24 06:14 UTC. Time now 2016-May-24 08:00 UTC.
Position N 49°11' W 123°52'.

Length 88 m; draft 1.5 m.

Type: Ship. MMSI: 316001266.

Date/timePositionNaut miles runAvg speedWind from/ knotsBaromVisibWave heightAir tempDewpointWater temp
2016-May-24 06:14N 49°11' W 123°52'0 0.3
2016-May-24 05:32N 49°11' W 123°52'0 0.0
2016-May-24 04:33N 49°11' W 123°52'1 0.8
2016-May-24 03:33N 49°11' W 123°53'1 0.8
2016-May-24 02:33N 49°11' W 123°52'0 0.0
2016-May-24 01:29N 49°11' W 123°52'0 0.1
2016-May-24 00:21N 49°11' W 123°52'1 1.2
2016-May-23 23:32N 49°10' W 123°53'2 1.6
2016-May-23 22:28N 49°10' W 123°56'1 0.7
2016-May-23 21:33N 49°10' W 123°55'2 1.7
2016-May-23 20:26N 49°11' W 123°52'0 0.4
2016-May-23 19:33N 49°11' W 123°52'2 2.2
2016-May-23 18:33N 49°10' W 123°55'1 0.7
2016-May-23 17:32N 49°10' W 123°56'1 1.0
2016-May-23 16:33N 49°10' W 123°54'2 1.8
2016-May-23 15:33N 49°11' W 123°52'0 0.1
2016-May-23 14:19N 49°11' W 123°52'3 3.7
2016-May-23 13:33N 49°10' W 123°56'3 0.4
2016-May-23 06:21N 49°11' W 123°52'0 0.0
2016-May-23 05:32N 49°11' W 123°52'0 0.0
2016-May-23 04:31N 49°11' W 123°52'1 0.9
2016-May-23 03:33N 49°11' W 123°53'0 0.1
2016-May-23 02:33N 49°11' W 123°53'1 0.6
2016-May-23 01:33N 49°11' W 123°52'0 0.1
2016-May-23 00:25N 49°11' W 123°52'1 0.6
2016-May-22 23:33N 49°11' W 123°52'2 2.4
2016-May-22 22:33N 49°10' W 123°56'3 2.9
2016-May-22 21:33N 49°11' W 123°52'0 0.4
2016-May-22 20:29N 49°11' W 123°52'0 0.4
2016-May-22 19:31N 49°11' W 123°52'2 2.3
2016-May-22 18:33N 49°10' W 123°55'1 0.7
2016-May-22 17:33N 49°10' W 123°56'1 1.2
2016-May-22 16:34N 49°10' W 123°54'2 1.7
2016-May-22 15:31N 49°11' W 123°52'2 1.2
2016-May-22 13:33N 49°10' W 123°55'2 1.1
2016-May-22 11:18N 49°11' W 123°52'0 0.0
2016-May-22 10:06N 49°11' W 123°52'0 0.0
2016-May-22 06:24N 49°11' W 123°52'0 0.0
2016-May-22 05:33N 49°11' W 123°52'0 0.0
2016-May-22 04:33N 49°11' W 123°52'1 0.8
2016-May-22 03:32N 49°11' W 123°53'0 0.1
2016-May-22 02:32N 49°11' W 123°53'1 0.8
2016-May-22 01:33N 49°11' W 123°52'0 0.0
2016-May-22 00:28N 49°11' W 123°52'2 1.6
2016-May-21 23:33N 49°10' W 123°54'1 1.4
2016-May-21 22:33N 49°10' W 123°56'3 1.4
2016-May-21 20:32N 49°11' W 123°52'0 0.0
2016-May-21 19:17N 49°11' W 123°52'2 3.0
2016-May-21 18:33N 49°10' W 123°55'1 0.6
2016-May-21 17:30N 49°10' W 123°56'1 1.0
2016-May-21 16:33N 49°10' W 123°54'2 1.9
2016-May-21 15:33N 49°11' W 123°52'0 0.0
2016-May-21 14:20N 49°11' W 123°52'3 3.6
2016-May-21 13:33N 49°10' W 123°56'3 2.7
2016-May-21 12:32N 49°11' W 123°52'0 0.0
2016-May-21 11:23N 49°11' W 123°52'1 0.2
2016-May-21 06:15N 49°11' W 123°53'1 1.0
2016-May-21 05:27N 49°11' W 123°52'0 0.1
2016-May-21 04:17N 49°11' W 123°52'1 2.0
2016-May-21 03:33N 49°10' W 123°54'0 0.5
2016-May-21 02:33N 49°10' W 123°55'2 1.6
2016-May-21 01:33N 49°11' W 123°52'0 0.4
2016-May-21 00:28N 49°11' W 123°52'1 0.7
2016-May-20 23:33N 49°11' W 123°53'2 2.1
2016-May-20 22:33N 49°10' W 123°56'0 0.1
2016-May-20 21:31N 49°10' W 123°56'2 1.7
2016-May-20 20:28N 49°10' W 123°53'1 0.7
2016-May-20 19:18N 49°11' W 123°52'2 2.6
2016-May-20 18:33N 49°10' W 123°55'1 0.7
2016-May-20 17:26N 49°10' W 123°56'1 1.4
2016-May-20 16:33N 49°10' W 123°54'2 1.5
2016-May-20 15:30N 49°11' W 123°52'0 0.0
2016-May-20 14:24N 49°11' W 123°52'3 3.2
2016-May-20 13:33N 49°10' W 123°55'3 2.6
2016-May-20 12:32N 49°11' W 123°52'0 0.0
2016-May-20 06:32N 49°11' W 123°52'0 0.4
2016-May-20 05:33N 49°11' W 123°52'0 0.2
2016-May-20 04:34N 49°11' W 123°52'0 0.5
2016-May-20 03:33N 49°10' W 123°53'1 0.7
2016-May-20 02:34N 49°11' W 123°52'0 0.3
2016-May-20 01:33N 49°11' W 123°52'0 0.1
2016-May-20 00:32N 49°11' W 123°52'1 1.1
2016-May-19 23:33N 49°10' W 123°53'2 1.9
2016-May-19 22:33N 49°10' W 123°56'0 0.0
2016-May-19 21:33N 49°10' W 123°56'2 2.0
2016-May-19 20:33N 49°11' W 123°53'1 0.9
2016-May-19 19:29N 49°11' W 123°52'2 1.8
2016-May-19 18:33N 49°10' W 123°54'1 1.2
2016-May-19 17:33N 49°10' W 123°56'1 0.7
2016-May-19 16:33N 49°10' W 123°55'2 2.2
2016-May-19 15:34N 49°11' W 123°52'0 0.0
2016-May-19 14:33N 49°11' W 123°52'3 2.8
2016-May-19 13:33N 49°10' W 123°56'3 0.4
2016-May-19 07:07N 49°11' W 123°52'0 0.0
2016-May-19 06:23N 49°11' W 123°52'3 3.5
2016-May-19 05:33N 49°10' W 123°56'3 2.6
2016-May-19 04:33N 49°11' W 123°52'1 0.9
2016-May-19 03:34N 49°11' W 123°53'1 1.1
2016-May-19 02:33N 49°11' W 123°52'0 0.1
2016-May-19 01:33N 49°11' W 123°52'0 0.0
2016-May-19 00:33N 49°11' W 123°52'2 1.9
2016-May-18 23:33N 49°10' W 123°54'1 1.0
2016-May-18 22:33N 49°10' W 123°56'1 0.9
2016-May-18 21:33N 49°10' W 123°54'2 1.9
2016-May-18 20:33N 49°11' W 123°52'0 0.1
2016-May-18 19:30N 49°11' W 123°52'2 1.7
2016-May-18 18:33N 49°10' W 123°54'1 1.3
2016-May-18 17:33N 49°10' W 123°56'0 0.0
2016-May-18 16:34N 49°10' W 123°56'3 2.6
2016-May-18 15:33N 49°11' W 123°52'0 0.3
2016-May-18 14:31N 49°11' W 123°52'3 2.6
2016-May-18 13:33N 49°10' W 123°55'3 0.8
2016-May-18 10:18N 49°11' W 123°52'0 0.0
2016-May-18 07:12N 49°11' W 123°52'0 0.0
2016-May-18 06:21N 49°11' W 123°52'0 0.6
2016-May-18 05:33N 49°11' W 123°52'0 0.0
2016-May-18 04:33N 49°11' W 123°52'1 0.7
2016-May-18 03:33N 49°10' W 123°53'1 1.1
2016-May-18 02:33N 49°11' W 123°52'0 0.1
2016-May-18 01:33N 49°11' W 123°52'0 0.0
2016-May-18 00:33N 49°11' W 123°52'2 1.6
2016-May-17 23:33N 49°10' W 123°54'1 1.3
2016-May-17 22:33N 49°10' W 123°56'1 0.8
2016-May-17 21:33N 49°10' W 123°55'2 2.1
2016-May-17 20:33N 49°11' W 123°52'0 0.0
2016-May-17 19:33N 49°11' W 123°52'1 1.4
2016-May-17 18:33N 49°10' W 123°54'1 1.5
2016-May-17 17:33N 49°10' W 123°56'0 0.0
2016-May-17 16:32N 49°10' W 123°56'3 2.7
2016-May-17 15:33N 49°11' W 123°52'0 0.2
2016-May-17 14:33N 49°11' W 123°52'3 2.8
2016-May-17 13:33N 49°10' W 123°56'3 0.4
2016-May-17 06:24N 49°11' W 123°52'0 0.0
2016-May-17 05:33N 49°11' W 123°52'0 0.4
2016-May-17 04:34N 49°11' W 123°52'1 0.9
2016-May-17 03:33N 49°10' W 123°54'1 1.1
2016-May-17 02:33N 49°11' W 123°52'0 0.2
2016-May-17 01:33N 49°11' W 123°52'0 0.1
2016-May-17 00:33N 49°11' W 123°52'1 1.5
2016-May-16 23:33N 49°10' W 123°54'1 1.5
2016-May-16 22:33N 49°10' W 123°56'1 1.3
2016-May-16 21:34N 49°10' W 123°54'2 1.5
2016-May-16 20:33N 49°11' W 123°52'0 0.1
2016-May-16 19:29N 49°11' W 123°52'2 2.1
2016-May-16 18:33N 49°10' W 123°54'1 0.9
2016-May-16 17:33N 49°10' W 123°56'1 0.6
2016-May-16 16:33N 49°10' W 123°55'2 2.2
2016-May-16 15:33N 49°11' W 123°52'0 0.1
2016-May-16 14:26N 49°11' W 123°52'2 2.2
2016-May-16 13:33N 49°10' W 123°54'2 0.3
2016-May-16 06:26N 49°11' W 123°52'1 0.7
2016-May-16 05:34N 49°11' W 123°53'0 0.5
2016-May-16 04:33N 49°11' W 123°52'1 1.0
2016-May-16 03:33N 49°10' W 123°53'1 1.0
2016-May-16 02:33N 49°11' W 123°52'0 0.2
2016-May-16 01:32N 49°11' W 123°52'0 0.0
2016-May-16 00:33N 49°11' W 123°52'1 1.4
2016-May-15 23:33N 49°10' W 123°54'1 1.5
2016-May-15 22:33N 49°10' W 123°56'3 2.9
2016-May-15 21:33N 49°11' W 123°52'0 0.0
2016-May-15 20:32N 49°11' W 123°52'0 0.0
2016-May-15 19:33N 49°11' W 123°52'2 1.9
2016-May-15 18:33N 49°10' W 123°54'1 1.0
2016-May-15 17:33N 49°10' W 123°56'1 0.6
2016-May-15 16:33N 49°10' W 123°55'2 2.2
2016-May-15 15:33N 49°11' W 123°52'3 2.9
2016-May-15 14:33N 49°10' W 123°56'1 0.9
2016-May-15 13:34N 49°10' W 123°55'2 0.3
2016-May-15 07:14N 49°11' W 123°52'0 0.0
2016-May-15 06:29N 49°11' W 123°52'0 0.0
2016-May-15 05:31N 49°11' W 123°52'0 0.0
2016-May-15 04:29N 49°11' W 123°52'1 0.9
2016-May-15 03:33N 49°11' W 123°53'1 0.8
2016-May-15 02:33N 49°11' W 123°52'0 0.1
2016-May-15 01:33N 49°11' W 123°52'0 0.0
2016-May-15 00:32N 49°11' W 123°52'1 0.7
2016-May-14 23:33N 49°11' W 123°53'2 2.2
2016-May-14 22:33N 49°10' W 123°56'3 2.4
2016-May-14 21:20N 49°11' W 123°52'0 0.2
2016-May-14 20:33N 49°11' W 123°52'0 0.1
2016-May-14 19:33N 49°11' W 123°52'2 1.9
2016-May-14 18:33N 49°10' W 123°54'1 1.0
2016-May-14 17:33N 49°10' W 123°56'1 0.6
2016-May-14 16:33N 49°10' W 123°55'2 2.0
2016-May-14 15:33N 49°11' W 123°52'0 0.3
2016-May-14 14:19N 49°11' W 123°52'3 3.8
2016-May-14 13:33N 49°10' W 123°56'3 0.7
2016-May-14 09:29N 49°11' W 123°52'0 0.0
2016-May-14 07:23N 49°11' W 123°52'0 0.0
2016-May-14 06:24N 49°11' W 123°52'  
Track history (hours):
 
Tides and Currents Weather Stations Pressure Air Temp Water Temp Dewpoint Dewpoint Depression Visibility Wind Speed Wind Dir Waves Ship Positions

Quinsam

Last reported at 2016-May-24 06:14 UTC. Time now 2016-May-24 08:00 UTC.
Position N 49°11' W 123°52'.

Length 88 m; draft 1.5 m.

Type: Ship. MMSI: 316001266.

Date/timePositionNaut miles runAvg speedWind from/ knotsBaromVisibWave heightAir tempDewpointWater temp
2016-May-24 06:14N 49°11' W 123°52'0 0.3
2016-May-24 05:32N 49°11' W 123°52'0 0.0
2016-May-24 04:33N 49°11' W 123°52'1 0.8
2016-May-24 03:33N 49°11' W 123°53'1 0.8
2016-May-24 02:33N 49°11' W 123°52'0 0.0
2016-May-24 01:29N 49°11' W 123°52'0 0.1
2016-May-24 00:21N 49°11' W 123°52'1 1.2
2016-May-23 23:32N 49°10' W 123°53'2 1.6
2016-May-23 22:28N 49°10' W 123°56'1 0.7
2016-May-23 21:33N 49°10' W 123°55'2 1.7
2016-May-23 20:26N 49°11' W 123°52'0 0.4
2016-May-23 19:33N 49°11' W 123°52'2 2.2
2016-May-23 18:33N 49°10' W 123°55'1 0.7
2016-May-23 17:32N 49°10' W 123°56'1 1.0
2016-May-23 16:33N 49°10' W 123°54'2 1.8
2016-May-23 15:33N 49°11' W 123°52'0 0.1
2016-May-23 14:19N 49°11' W 123°52'3 3.7
2016-May-23 13:33N 49°10' W 123°56'3 0.4
2016-May-23 06:21N 49°11' W 123°52'0 0.0
2016-May-23 05:32N 49°11' W 123°52'0 0.0
2016-May-23 04:31N 49°11' W 123°52'1 0.9
2016-May-23 03:33N 49°11' W 123°53'0 0.1
2016-May-23 02:33N 49°11' W 123°53'1 0.6
2016-May-23 01:33N 49°11' W 123°52'0 0.1
2016-May-23 00:25N 49°11' W 123°52'1 0.6
2016-May-22 23:33N 49°11' W 123°52'2 2.4
2016-May-22 22:33N 49°10' W 123°56'3 2.9
2016-May-22 21:33N 49°11' W 123°52'0 0.4
2016-May-22 20:29N 49°11' W 123°52'0 0.4
2016-May-22 19:31N 49°11' W 123°52'2 2.3
2016-May-22 18:33N 49°10' W 123°55'1 0.7
2016-May-22 17:33N 49°10' W 123°56'1 1.2
2016-May-22 16:34N 49°10' W 123°54'2 1.7
2016-May-22 15:31N 49°11' W 123°52'2 1.2
2016-May-22 13:33N 49°10' W 123°55'2 1.1
2016-May-22 11:18N 49°11' W 123°52'0 0.0
2016-May-22 10:06N 49°11' W 123°52'0 0.0
2016-May-22 06:24N 49°11' W 123°52'0 0.0
2016-May-22 05:33N 49°11' W 123°52'0 0.0
2016-May-22 04:33N 49°11' W 123°52'1 0.8
2016-May-22 03:32N 49°11' W 123°53'0 0.1
2016-May-22 02:32N 49°11' W 123°53'1 0.8
2016-May-22 01:33N 49°11' W 123°52'0 0.0
2016-May-22 00:28N 49°11' W 123°52'2 1.6
2016-May-21 23:33N 49°10' W 123°54'1 1.4
2016-May-21 22:33N 49°10' W 123°56'3 1.4
2016-May-21 20:32N 49°11' W 123°52'0 0.0
2016-May-21 19:17N 49°11' W 123°52'2 3.0
2016-May-21 18:33N 49°10' W 123°55'1 0.6
2016-May-21 17:30N 49°10' W 123°56'1 1.0
2016-May-21 16:33N 49°10' W 123°54'2 1.9
2016-May-21 15:33N 49°11' W 123°52'0 0.0
2016-May-21 14:20N 49°11' W 123°52'3 3.6
2016-May-21 13:33N 49°10' W 123°56'3 2.7
2016-May-21 12:32N 49°11' W 123°52'0 0.0
2016-May-21 11:23N 49°11' W 123°52'1 0.2
2016-May-21 06:15N 49°11' W 123°53'1 1.0
2016-May-21 05:27N 49°11' W 123°52'0 0.1
2016-May-21 04:17N 49°11' W 123°52'1 2.0
2016-May-21 03:33N 49°10' W 123°54'0 0.5
2016-May-21 02:33N 49°10' W 123°55'2 1.6
2016-May-21 01:33N 49°11' W 123°52'0 0.4
2016-May-21 00:28N 49°11' W 123°52'1 0.7
2016-May-20 23:33N 49°11' W 123°53'2 2.1
2016-May-20 22:33N 49°10' W 123°56'0 0.1
2016-May-20 21:31N 49°10' W 123°56'2 1.7
2016-May-20 20:28N 49°10' W 123°53'1 0.7
2016-May-20 19:18N 49°11' W 123°52'2 2.6
2016-May-20 18:33N 49°10' W 123°55'1 0.7
2016-May-20 17:26N 49°10' W 123°56'1 1.4
2016-May-20 16:33N 49°10' W 123°54'2 1.5
2016-May-20 15:30N 49°11' W 123°52'0 0.0
2016-May-20 14:24N 49°11' W 123°52'3 3.2
2016-May-20 13:33N 49°10' W 123°55'3 2.6
2016-May-20 12:32N 49°11' W 123°52'0 0.0
2016-May-20 06:32N 49°11' W 123°52'0 0.4
2016-May-20 05:33N 49°11' W 123°52'0 0.2
2016-May-20 04:34N 49°11' W 123°52'0 0.5
2016-May-20 03:33N 49°10' W 123°53'1 0.7
2016-May-20 02:34N 49°11' W 123°52'0 0.3
2016-May-20 01:33N 49°11' W 123°52'0 0.1
2016-May-20 00:32N 49°11' W 123°52'1 1.1
2016-May-19 23:33N 49°10' W 123°53'2 1.9
2016-May-19 22:33N 49°10' W 123°56'0 0.0
2016-May-19 21:33N 49°10' W 123°56'2 2.0
2016-May-19 20:33N 49°11' W 123°53'1 0.9
2016-May-19 19:29N 49°11' W 123°52'2 1.8
2016-May-19 18:33N 49°10' W 123°54'1 1.2
2016-May-19 17:33N 49°10' W 123°56'1 0.7
2016-May-19 16:33N 49°10' W 123°55'2 2.2
2016-May-19 15:34N 49°11' W 123°52'0 0.0
2016-May-19 14:33N 49°11' W 123°52'3 2.8
2016-May-19 13:33N 49°10' W 123°56'3 0.4
2016-May-19 07:07N 49°11' W 123°52'0 0.0
2016-May-19 06:23N 49°11' W 123°52'3 3.5
2016-May-19 05:33N 49°10' W 123°56'3 2.6
2016-May-19 04:33N 49°11' W 123°52'1 0.9
2016-May-19 03:34N 49°11' W 123°53'1 1.1
2016-May-19 02:33N 49°11' W 123°52'0 0.1
2016-May-19 01:33N 49°11' W 123°52'0 0.0
2016-May-19 00:33N 49°11' W 123°52'2 1.9
2016-May-18 23:33N 49°10' W 123°54'1 1.0
2016-May-18 22:33N 49°10' W 123°56'1 0.9
2016-May-18 21:33N 49°10' W 123°54'2 1.9
2016-May-18 20:33N 49°11' W 123°52'0 0.1
2016-May-18 19:30N 49°11' W 123°52'2 1.7
2016-May-18 18:33N 49°10' W 123°54'1 1.3
2016-May-18 17:33N 49°10' W 123°56'0 0.0
2016-May-18 16:34N 49°10' W 123°56'3 2.6
2016-May-18 15:33N 49°11' W 123°52'0 0.3
2016-May-18 14:31N 49°11' W 123°52'3 2.6
2016-May-18 13:33N 49°10' W 123°55'3 0.8
2016-May-18 10:18N 49°11' W 123°52'0 0.0
2016-May-18 07:12N 49°11' W 123°52'0 0.0
2016-May-18 06:21N 49°11' W 123°52'0 0.6
2016-May-18 05:33N 49°11' W 123°52'0 0.0
2016-May-18 04:33N 49°11' W 123°52'1 0.7
2016-May-18 03:33N 49°10' W 123°53'1 1.1
2016-May-18 02:33N 49°11' W 123°52'0 0.1
2016-May-18 01:33N 49°11' W 123°52'0 0.0
2016-May-18 00:33N 49°11' W 123°52'2 1.6
2016-May-17 23:33N 49°10' W 123°54'1 1.3
2016-May-17 22:33N 49°10' W 123°56'1 0.8
2016-May-17 21:33N 49°10' W 123°55'2 2.1
2016-May-17 20:33N 49°11' W 123°52'0 0.0
2016-May-17 19:33N 49°11' W 123°52'1 1.4
2016-May-17 18:33N 49°10' W 123°54'1 1.5
2016-May-17 17:33N 49°10' W 123°56'0 0.0
2016-May-17 16:32N 49°10' W 123°56'3 2.7
2016-May-17 15:33N 49°11' W 123°52'0 0.2
2016-May-17 14:33N 49°11' W 123°52'3 2.8
2016-May-17 13:33N 49°10' W 123°56'3 0.4
2016-May-17 06:24N 49°11' W 123°52'0 0.0
2016-May-17 05:33N 49°11' W 123°52'0 0.4
2016-May-17 04:34N 49°11' W 123°52'1 0.9
2016-May-17 03:33N 49°10' W 123°54'1 1.1
2016-May-17 02:33N 49°11' W 123°52'0 0.2
2016-May-17 01:33N 49°11' W 123°52'0 0.1
2016-May-17 00:33N 49°11' W 123°52'1 1.5
2016-May-16 23:33N 49°10' W 123°54'1 1.5
2016-May-16 22:33N 49°10' W 123°56'1 1.3
2016-May-16 21:34N 49°10' W 123°54'2 1.5
2016-May-16 20:33N 49°11' W 123°52'0 0.1
2016-May-16 19:29N 49°11' W 123°52'2 2.1
2016-May-16 18:33N 49°10' W 123°54'1 0.9
2016-May-16 17:33N 49°10' W 123°56'1 0.6
2016-May-16 16:33N 49°10' W 123°55'2 2.2
2016-May-16 15:33N 49°11' W 123°52'0 0.1
2016-May-16 14:26N 49°11' W 123°52'2 2.2
2016-May-16 13:33N 49°10' W 123°54'2 0.3
2016-May-16 06:26N 49°11' W 123°52'1 0.7
2016-May-16 05:34N 49°11' W 123°53'0 0.5
2016-May-16 04:33N 49°11' W 123°52'1 1.0
2016-May-16 03:33N 49°10' W 123°53'1 1.0
2016-May-16 02:33N 49°11' W 123°52'0 0.2
2016-May-16 01:32N 49°11' W 123°52'0 0.0
2016-May-16 00:33N 49°11' W 123°52'1 1.4
2016-May-15 23:33N 49°10' W 123°54'1 1.5
2016-May-15 22:33N 49°10' W 123°56'3 2.9
2016-May-15 21:33N 49°11' W 123°52'0 0.0
2016-May-15 20:32N 49°11' W 123°52'0 0.0
2016-May-15 19:33N 49°11' W 123°52'2 1.9
2016-May-15 18:33N 49°10' W 123°54'1 1.0
2016-May-15 17:33N 49°10' W 123°56'1 0.6
2016-May-15 16:33N 49°10' W 123°55'2 2.2
2016-May-15 15:33N 49°11' W 123°52'3 2.9
2016-May-15 14:33N 49°10' W 123°56'1 0.9
2016-May-15 13:34N 49°10' W 123°55'2 0.3
2016-May-15 07:14N 49°11' W 123°52'0 0.0
2016-May-15 06:29N 49°11' W 123°52'0 0.0
2016-May-15 05:31N 49°11' W 123°52'0 0.0
2016-May-15 04:29N 49°11' W 123°52'1 0.9
2016-May-15 03:33N 49°11' W 123°53'1 0.8
2016-May-15 02:33N 49°11' W 123°52'0 0.1
2016-May-15 01:33N 49°11' W 123°52'0 0.0
2016-May-15 00:32N 49°11' W 123°52'1 0.7
2016-May-14 23:33N 49°11' W 123°53'2 2.2
2016-May-14 22:33N 49°10' W 123°56'3 2.4
2016-May-14 21:20N 49°11' W 123°52'0 0.2
2016-May-14 20:33N 49°11' W 123°52'0 0.1
2016-May-14 19:33N 49°11' W 123°52'2 1.9
2016-May-14 18:33N 49°10' W 123°54'1 1.0
2016-May-14 17:33N 49°10' W 123°56'1 0.6
2016-May-14 16:33N 49°10' W 123°55'2 2.0
2016-May-14 15:33N 49°11' W 123°52'0 0.3
2016-May-14 14:19N 49°11' W 123°52'3 3.8
2016-May-14 13:33N 49°10' W 123°56'3 0.7
2016-May-14 09:29N 49°11' W 123°52'0 0.0
2016-May-14 07:23N 49°11' W 123°52'0 0.0
2016-May-14 06:24N 49°11' W 123°52'  

Dump ship's entire track history